sensor_id;sensor_type;location;lat;lon;timestamp;temperature;humidity
24664;DHT22;12791;50.992;13.788;2023-04-24T00:02:01;13.00;99.90
24664;DHT22;12791;50.992;13.788;2023-04-24T00:04:30;12.90;99.90
24664;DHT22;12791;50.992;13.788;2023-04-24T00:06:57;12.80;99.90
24664;DHT22;12791;50.992;13.788;2023-04-24T00:09:25;12.80;99.90
24664;DHT22;12791;50.992;13.788;2023-04-24T00:11:52;12.80;99.90
24664;DHT22;12791;50.992;13.788;2023-04-24T00:14:19;12.80;99.90
24664;DHT22;12791;50.992;13.788;2023-04-24T00:16:45;12.90;99.90
24664;DHT22;12791;50.992;13.788;2023-04-24T00:19:12;12.90;99.90
24664;DHT22;12791;50.992;13.788;2023-04-24T00:21:40;12.90;99.90
24664;DHT22;12791;50.992;13.788;2023-04-24T00:24:07;13.00;99.90
24664;DHT22;12791;50.992;13.788;2023-04-24T00:26:34;13.00;99.90
24664;DHT22;12791;50.992;13.788;2023-04-24T00:29:01;13.00;99.90
24664;DHT22;12791;50.992;13.788;2023-04-24T00:31:28;13.00;99.90
24664;DHT22;12791;50.992;13.788;2023-04-24T00:33:54;13.00;99.90
24664;DHT22;12791;50.992;13.788;2023-04-24T00:36:21;13.00;99.90
24664;DHT22;12791;50.992;13.788;2023-04-24T00:38:49;13.00;99.90
24664;DHT22;12791;50.992;13.788;2023-04-24T00:41:15;13.00;99.90
24664;DHT22;12791;50.992;13.788;2023-04-24T00:43:42;13.00;99.90
24664;DHT22;12791;50.992;13.788;2023-04-24T00:46:08;13.00;99.90
24664;DHT22;12791;50.992;13.788;2023-04-24T00:48:37;13.00;99.90
24664;DHT22;12791;50.992;13.788;2023-04-24T00:51:05;13.00;99.90
24664;DHT22;12791;50.992;13.788;2023-04-24T00:53:31;13.00;99.90
24664;DHT22;12791;50.992;13.788;2023-04-24T00:56:00;13.00;99.90
24664;DHT22;12791;50.992;13.788;2023-04-24T00:58:26;12.90;99.90
24664;DHT22;12791;50.992;13.788;2023-04-24T01:00:54;12.90;99.90
24664;DHT22;12791;50.992;13.788;2023-04-24T01:03:25;12.90;99.90
24664;DHT22;12791;50.992;13.788;2023-04-24T01:05:52;12.90;99.90
24664;DHT22;12791;50.992;13.788;2023-04-24T01:08:21;12.90;99.90
24664;DHT22;12791;50.992;13.788;2023-04-24T01:10:51;12.90;99.90
24664;DHT22;12791;50.992;13.788;2023-04-24T01:13:19;12.90;99.90
24664;DHT22;12791;50.992;13.788;2023-04-24T01:15:47;12.80;99.90
24664;DHT22;12791;50.992;13.788;2023-04-24T01:18:13;12.90;99.90
24664;DHT22;12791;50.992;13.788;2023-04-24T01:20:41;12.90;99.90
24664;DHT22;12791;50.992;13.788;2023-04-24T01:23:10;12.90;99.90
24664;DHT22;12791;50.992;13.788;2023-04-24T01:25:37;12.90;99.90
24664;DHT22;12791;50.992;13.788;2023-04-24T01:28:04;12.90;99.90
24664;DHT22;12791;50.992;13.788;2023-04-24T01:30:31;12.90;99.90
24664;DHT22;12791;50.992;13.788;2023-04-24T01:32:58;13.00;99.90
24664;DHT22;12791;50.992;13.788;2023-04-24T01:35:25;13.00;99.90
24664;DHT22;12791;50.992;13.788;2023-04-24T01:37:52;13.00;99.90
24664;DHT22;12791;50.992;13.788;2023-04-24T01:40:20;13.00;99.90
24664;DHT22;12791;50.992;13.788;2023-04-24T01:42:47;13.00;99.90
24664;DHT22;12791;50.992;13.788;2023-04-24T01:45:13;13.00;99.90
24664;DHT22;12791;50.992;13.788;2023-04-24T01:47:40;13.00;99.90
24664;DHT22;12791;50.992;13.788;2023-04-24T01:50:07;13.00;99.90
24664;DHT22;12791;50.992;13.788;2023-04-24T01:52:34;13.00;99.90
24664;DHT22;12791;50.992;13.788;2023-04-24T01:55:01;13.00;99.90
24664;DHT22;12791;50.992;13.788;2023-04-24T01:57:31;13.00;99.90
24664;DHT22;12791;50.992;13.788;2023-04-24T01:59:57;13.00;99.90
24664;DHT22;12791;50.992;13.788;2023-04-24T02:02:24;13.00;99.90
24664;DHT22;12791;50.992;13.788;2023-04-24T02:04:52;13.00;99.90
24664;DHT22;12791;50.992;13.788;2023-04-24T02:07:19;13.00;99.90
24664;DHT22;12791;50.992;13.788;2023-04-24T02:09:46;13.00;99.90
24664;DHT22;12791;50.992;13.788;2023-04-24T02:12:12;12.90;99.90
24664;DHT22;12791;50.992;13.788;2023-04-24T02:14:40;12.90;99.90
24664;DHT22;12791;50.992;13.788;2023-04-24T02:17:07;12.90;99.90
24664;DHT22;12791;50.992;13.788;2023-04-24T02:19:34;12.90;99.90
24664;DHT22;12791;50.992;13.788;2023-04-24T02:22:01;12.80;99.90
24664;DHT22;12791;50.992;13.788;2023-04-24T02:24:27;12.80;99.90
24664;DHT22;12791;50.992;13.788;2023-04-24T02:26:54;12.80;99.90
24664;DHT22;12791;50.992;13.788;2023-04-24T02:29:21;12.70;99.90
24664;DHT22;12791;50.992;13.788;2023-04-24T02:31:49;12.70;99.90
24664;DHT22;12791;50.992;13.788;2023-04-24T02:34:16;12.70;99.90
24664;DHT22;12791;50.992;13.788;2023-04-24T02:36:42;12.70;99.90
24664;DHT22;12791;50.992;13.788;2023-04-24T02:39:09;12.70;99.90
24664;DHT22;12791;50.992;13.788;2023-04-24T02:41:35;12.70;99.90
24664;DHT22;12791;50.992;13.788;2023-04-24T02:44:02;12.70;99.90
24664;DHT22;12791;50.992;13.788;2023-04-24T02:46:29;12.70;99.90
24664;DHT22;12791;50.992;13.788;2023-04-24T02:48:56;12.70;99.90
24664;DHT22;12791;50.992;13.788;2023-04-24T02:51:23;12.70;99.90
24664;DHT22;12791;50.992;13.788;2023-04-24T02:53:50;12.70;99.90
24664;DHT22;12791;50.992;13.788;2023-04-24T02:56:17;12.70;99.90
24664;DHT22;12791;50.992;13.788;2023-04-24T02:58:43;12.70;99.90
24664;DHT22;12791;50.992;13.788;2023-04-24T03:01:10;12.70;99.90
24664;DHT22;12791;50.992;13.788;2023-04-24T03:03:37;12.70;99.90
24664;DHT22;12791;50.992;13.788;2023-04-24T03:06:05;12.70;99.90
24664;DHT22;12791;50.992;13.788;2023-04-24T03:08:33;12.70;99.90
24664;DHT22;12791;50.992;13.788;2023-04-24T03:11:00;12.70;99.90
24664;DHT22;12791;50.992;13.788;2023-04-24T03:13:26;12.70;99.90
24664;DHT22;12791;50.992;13.788;2023-04-24T03:15:53;12.60;99.90
24664;DHT22;12791;50.992;13.788;2023-04-24T03:18:20;12.60;99.90
24664;DHT22;12791;50.992;13.788;2023-04-24T03:20:46;12.50;99.90
24664;DHT22;12791;50.992;13.788;2023-04-24T03:23:15;12.50;99.90
24664;DHT22;12791;50.992;13.788;2023-04-24T03:25:41;12.50;99.90
24664;DHT22;12791;50.992;13.788;2023-04-24T03:28:09;12.50;99.90
24664;DHT22;12791;50.992;13.788;2023-04-24T03:30:35;12.50;99.90
24664;DHT22;12791;50.992;13.788;2023-04-24T03:33:02;12.50;99.90
24664;DHT22;12791;50.992;13.788;2023-04-24T03:35:28;12.50;99.90
24664;DHT22;12791;50.992;13.788;2023-04-24T03:37:55;12.50;99.90
24664;DHT22;12791;50.992;13.788;2023-04-24T03:40:23;12.50;99.90
24664;DHT22;12791;50.992;13.788;2023-04-24T03:42:50;12.60;99.90
24664;DHT22;12791;50.992;13.788;2023-04-24T03:45:16;12.60;99.90
24664;DHT22;12791;50.992;13.788;2023-04-24T03:47:43;12.60;99.90
24664;DHT22;12791;50.992;13.788;2023-04-24T03:50:10;12.60;99.90
24664;DHT22;12791;50.992;13.788;2023-04-24T03:52:36;12.60;99.90
24664;DHT22;12791;50.992;13.788;2023-04-24T03:55:03;12.50;99.90
24664;DHT22;12791;50.992;13.788;2023-04-24T03:57:31;12.60;99.90
24664;DHT22;12791;50.992;13.788;2023-04-24T03:59:58;12.50;99.90
24664;DHT22;12791;50.992;13.788;2023-04-24T04:02:25;12.50;99.90
24664;DHT22;12791;50.992;13.788;2023-04-24T04:04:51;12.50;99.90
24664;DHT22;12791;50.992;13.788;2023-04-24T04:07:18;12.50;99.90
24664;DHT22;12791;50.992;13.788;2023-04-24T04:09:45;12.50;99.90
24664;DHT22;12791;50.992;13.788;2023-04-24T04:12:11;12.50;99.90
24664;DHT22;12791;50.992;13.788;2023-04-24T04:14:39;12.50;99.90
24664;DHT22;12791;50.992;13.788;2023-04-24T04:17:06;12.50;99.90
24664;DHT22;12791;50.992;13.788;2023-04-24T04:19:32;12.50;99.90
24664;DHT22;12791;50.992;13.788;2023-04-24T04:21:59;12.60;99.90
24664;DHT22;12791;50.992;13.788;2023-04-24T04:24:25;12.60;99.90
24664;DHT22;12791;50.992;13.788;2023-04-24T04:26:52;12.60;99.90
24664;DHT22;12791;50.992;13.788;2023-04-24T04:29:22;12.70;99.90
24664;DHT22;12791;50.992;13.788;2023-04-24T04:31:50;12.70;99.90
24664;DHT22;12791;50.992;13.788;2023-04-24T04:34:17;12.70;99.90
24664;DHT22;12791;50.992;13.788;2023-04-24T04:36:44;12.80;99.90
24664;DHT22;12791;50.992;13.788;2023-04-24T04:39:11;12.80;99.90
24664;DHT22;12791;50.992;13.788;2023-04-24T04:41:39;12.90;99.90
24664;DHT22;12791;50.992;13.788;2023-04-24T04:44:06;12.90;99.90
24664;DHT22;12791;50.992;13.788;2023-04-24T04:46:34;12.90;99.90
24664;DHT22;12791;50.992;13.788;2023-04-24T04:49:03;12.90;99.90
24664;DHT22;12791;50.992;13.788;2023-04-24T04:51:30;12.90;99.90
24664;DHT22;12791;50.992;13.788;2023-04-24T04:53:57;13.00;99.90
24664;DHT22;12791;50.992;13.788;2023-04-24T04:56:23;13.00;99.90
24664;DHT22;12791;50.992;13.788;2023-04-24T04:58:50;13.00;99.90
24664;DHT22;12791;50.992;13.788;2023-04-24T05:01:18;13.00;99.90
24664;DHT22;12791;50.992;13.788;2023-04-24T05:03:45;13.00;99.90
24664;DHT22;12791;50.992;13.788;2023-04-24T05:06:12;13.00;99.90
24664;DHT22;12791;50.992;13.788;2023-04-24T05:08:39;13.10;99.90
24664;DHT22;12791;50.992;13.788;2023-04-24T05:11:06;13.10;99.90
24664;DHT22;12791;50.992;13.788;2023-04-24T05:13:33;13.10;99.90
24664;DHT22;12791;50.992;13.788;2023-04-24T05:15:59;13.10;99.90
24664;DHT22;12791;50.992;13.788;2023-04-24T05:18:26;13.20;99.90
24664;DHT22;12791;50.992;13.788;2023-04-24T05:20:52;13.20;99.90
24664;DHT22;12791;50.992;13.788;2023-04-24T05:23:20;13.30;99.90
24664;DHT22;12791;50.992;13.788;2023-04-24T05:25:47;13.30;99.90
24664;DHT22;12791;50.992;13.788;2023-04-24T05:28:14;13.40;99.90
24664;DHT22;12791;50.992;13.788;2023-04-24T05:30:40;13.40;99.90
24664;DHT22;12791;50.992;13.788;2023-04-24T05:33:07;13.50;99.90
24664;DHT22;12791;50.992;13.788;2023-04-24T05:35:35;13.50;99.90
24664;DHT22;12791;50.992;13.788;2023-04-24T05:38:01;13.50;99.90
24664;DHT22;12791;50.992;13.788;2023-04-24T05:40:29;13.60;99.90
24664;DHT22;12791;50.992;13.788;2023-04-24T05:42:56;13.60;99.90
24664;DHT22;12791;50.992;13.788;2023-04-24T05:45:22;13.70;99.90
24664;DHT22;12791;50.992;13.788;2023-04-24T05:47:49;13.70;99.90
24664;DHT22;12791;50.992;13.788;2023-04-24T05:50:17;13.70;99.90
24664;DHT22;12791;50.992;13.788;2023-04-24T05:52:44;13.80;99.90
24664;DHT22;12791;50.992;13.788;2023-04-24T05:55:10;13.60;99.90
24664;DHT22;12791;50.992;13.788;2023-04-24T05:57:38;13.80;99.90
24664;DHT22;12791;50.992;13.788;2023-04-24T06:00:06;13.90;99.90
24664;DHT22;12791;50.992;13.788;2023-04-24T06:02:33;13.90;99.90
24664;DHT22;12791;50.992;13.788;2023-04-24T06:05:00;13.90;99.90
24664;DHT22;12791;50.992;13.788;2023-04-24T06:07:27;13.90;99.90
24664;DHT22;12791;50.992;13.788;2023-04-24T06:09:53;14.00;99.90
24664;DHT22;12791;50.992;13.788;2023-04-24T06:12:21;14.00;99.90
24664;DHT22;12791;50.992;13.788;2023-04-24T06:14:48;14.00;99.90
24664;DHT22;12791;50.992;13.788;2023-04-24T06:17:15;14.10;99.90
24664;DHT22;12791;50.992;13.788;2023-04-24T06:19:42;14.10;99.90
24664;DHT22;12791;50.992;13.788;2023-04-24T06:22:09;14.20;99.90
24664;DHT22;12791;50.992;13.788;2023-04-24T06:24:35;14.20;99.90
24664;DHT22;12791;50.992;13.788;2023-04-24T06:27:02;14.30;99.90
24664;DHT22;12791;50.992;13.788;2023-04-24T06:29:29;14.40;99.90
24664;DHT22;12791;50.992;13.788;2023-04-24T06:31:57;14.40;99.90
24664;DHT22;12791;50.992;13.788;2023-04-24T06:34:23;14.50;99.90
24664;DHT22;12791;50.992;13.788;2023-04-24T06:36:50;14.50;99.90
24664;DHT22;12791;50.992;13.788;2023-04-24T06:39:17;14.50;99.90
24664;DHT22;12791;50.992;13.788;2023-04-24T06:41:43;14.60;99.90
24664;DHT22;12791;50.992;13.788;2023-04-24T06:44:10;14.60;99.90
24664;DHT22;12791;50.992;13.788;2023-04-24T06:46:36;14.70;99.90
24664;DHT22;12791;50.992;13.788;2023-04-24T06:49:04;14.70;99.90
24664;DHT22;12791;50.992;13.788;2023-04-24T06:51:31;14.70;99.90
24664;DHT22;12791;50.992;13.788;2023-04-24T06:53:58;14.80;99.90
24664;DHT22;12791;50.992;13.788;2023-04-24T06:56:25;14.90;99.90
24664;DHT22;12791;50.992;13.788;2023-04-24T06:58:54;14.90;99.90
24664;DHT22;12791;50.992;13.788;2023-04-24T07:01:20;15.00;99.90
24664;DHT22;12791;50.992;13.788;2023-04-24T07:03:47;15.00;99.90
24664;DHT22;12791;50.992;13.788;2023-04-24T07:06:15;15.10;99.90
24664;DHT22;12791;50.992;13.788;2023-04-24T07:08:42;15.10;99.90
24664;DHT22;12791;50.992;13.788;2023-04-24T07:11:09;15.20;99.90
24664;DHT22;12791;50.992;13.788;2023-04-24T07:13:35;15.20;99.90
24664;DHT22;12791;50.992;13.788;2023-04-24T07:16:07;15.30;99.90
24664;DHT22;12791;50.992;13.788;2023-04-24T07:18:33;15.30;99.90
24664;DHT22;12791;50.992;13.788;2023-04-24T07:21:00;15.40;99.90
24664;DHT22;12791;50.992;13.788;2023-04-24T07:23:28;15.40;99.90
24664;DHT22;12791;50.992;13.788;2023-04-24T07:25:56;15.50;99.90
24664;DHT22;12791;50.992;13.788;2023-04-24T07:28:22;15.50;99.90
24664;DHT22;12791;50.992;13.788;2023-04-24T07:30:50;15.50;99.90
24664;DHT22;12791;50.992;13.788;2023-04-24T07:33:19;15.50;99.90
24664;DHT22;12791;50.992;13.788;2023-04-24T07:35:45;15.50;99.90
24664;DHT22;12791;50.992;13.788;2023-04-24T07:38:12;15.50;99.90
24664;DHT22;12791;50.992;13.788;2023-04-24T07:40:40;15.50;99.90
24664;DHT22;12791;50.992;13.788;2023-04-24T07:43:06;15.50;99.90
24664;DHT22;12791;50.992;13.788;2023-04-24T07:45:33;15.50;99.90
24664;DHT22;12791;50.992;13.788;2023-04-24T07:48:02;15.50;99.90
24664;DHT22;12791;50.992;13.788;2023-04-24T07:50:29;15.50;99.90
24664;DHT22;12791;50.992;13.788;2023-04-24T07:52:55;15.50;99.90
24664;DHT22;12791;50.992;13.788;2023-04-24T07:55:22;15.60;99.90
24664;DHT22;12791;50.992;13.788;2023-04-24T07:57:51;15.60;99.90
24664;DHT22;12791;50.992;13.788;2023-04-24T08:00:18;15.70;99.90
24664;DHT22;12791;50.992;13.788;2023-04-24T08:02:45;15.70;98.40
24664;DHT22;12791;50.992;13.788;2023-04-24T08:05:11;15.80;97.90
24664;DHT22;12791;50.992;13.788;2023-04-24T08:07:38;15.80;97.10
24664;DHT22;12791;50.992;13.788;2023-04-24T08:10:06;15.90;95.40
24664;DHT22;12791;50.992;13.788;2023-04-24T08:12:33;15.90;93.60
24664;DHT22;12791;50.992;13.788;2023-04-24T08:15:01;15.90;92.80
24664;DHT22;12791;50.992;13.788;2023-04-24T08:17:27;16.00;91.60
24664;DHT22;12791;50.992;13.788;2023-04-24T08:19:54;16.00;90.90
24664;DHT22;12791;50.992;13.788;2023-04-24T08:22:26;16.10;90.40
24664;DHT22;12791;50.992;13.788;2023-04-24T08:24:53;16.00;89.60
24664;DHT22;12791;50.992;13.788;2023-04-24T08:27:19;16.10;87.90
24664;DHT22;12791;50.992;13.788;2023-04-24T08:29:46;16.10;86.80
24664;DHT22;12791;50.992;13.788;2023-04-24T08:32:14;16.10;86.30
24664;DHT22;12791;50.992;13.788;2023-04-24T08:34:41;16.20;84.90
24664;DHT22;12791;50.992;13.788;2023-04-24T08:37:07;16.20;83.30
24664;DHT22;12791;50.992;13.788;2023-04-24T08:39:34;16.20;81.70
24664;DHT22;12791;50.992;13.788;2023-04-24T08:42:01;16.20;80.70
24664;DHT22;12791;50.992;13.788;2023-04-24T08:44:33;16.20;79.70
24664;DHT22;12791;50.992;13.788;2023-04-24T08:47:00;16.30;77.70
24664;DHT22;12791;50.992;13.788;2023-04-24T08:49:29;16.20;75.80
24664;DHT22;12791;50.992;13.788;2023-04-24T08:51:57;16.20;75.70
24664;DHT22;12791;50.992;13.788;2023-04-24T08:54:25;16.20;74.50
24664;DHT22;12791;50.992;13.788;2023-04-24T08:56:54;16.20;74.20
24664;DHT22;12791;50.992;13.788;2023-04-24T08:59:26;16.20;73.90
24664;DHT22;12791;50.992;13.788;2023-04-24T09:01:53;16.20;74.10
24664;DHT22;12791;50.992;13.788;2023-04-24T09:04:22;16.30;73.70
24664;DHT22;12791;50.992;13.788;2023-04-24T09:06:51;16.30;72.60
24664;DHT22;12791;50.992;13.788;2023-04-24T09:09:18;16.30;71.20
24664;DHT22;12791;50.992;13.788;2023-04-24T09:11:45;16.30;69.70
24664;DHT22;12791;50.992;13.788;2023-04-24T09:14:12;16.30;69.10
24664;DHT22;12791;50.992;13.788;2023-04-24T09:16:39;16.30;68.20
24664;DHT22;12791;50.992;13.788;2023-04-24T09:19:06;16.30;67.90
24664;DHT22;12791;50.992;13.788;2023-04-24T09:21:33;16.30;67.30
24664;DHT22;12791;50.992;13.788;2023-04-24T09:24:04;16.30;66.90
24664;DHT22;12791;50.992;13.788;2023-04-24T09:26:30;16.40;66.30
24664;DHT22;12791;50.992;13.788;2023-04-24T09:29:00;16.40;65.80
24664;DHT22;12791;50.992;13.788;2023-04-24T09:31:28;16.40;64.70
24664;DHT22;12791;50.992;13.788;2023-04-24T09:33:56;16.40;64.50
24664;DHT22;12791;50.992;13.788;2023-04-24T09:36:30;16.40;62.90
24664;DHT22;12791;50.992;13.788;2023-04-24T09:39:00;16.50;62.30
24664;DHT22;12791;50.992;13.788;2023-04-24T09:41:28;16.40;62.40
24664;DHT22;12791;50.992;13.788;2023-04-24T09:43:56;16.50;62.30
24664;DHT22;12791;50.992;13.788;2023-04-24T09:46:29;16.50;63.10
24664;DHT22;12791;50.992;13.788;2023-04-24T09:48:56;16.50;63.00
24664;DHT22;12791;50.992;13.788;2023-04-24T09:51:34;16.60;62.50
24664;DHT22;12791;50.992;13.788;2023-04-24T09:54:03;16.60;62.60
24664;DHT22;12791;50.992;13.788;2023-04-24T09:56:32;16.60;62.40
24664;DHT22;12791;50.992;13.788;2023-04-24T09:59:04;16.60;62.30
24664;DHT22;12791;50.992;13.788;2023-04-24T10:01:31;16.60;60.60
24664;DHT22;12791;50.992;13.788;2023-04-24T10:03:58;16.50;58.90
24664;DHT22;12791;50.992;13.788;2023-04-24T10:06:34;16.50;59.20
24664;DHT22;12791;50.992;13.788;2023-04-24T10:09:02;16.50;59.30
24664;DHT22;12791;50.992;13.788;2023-04-24T10:11:30;16.50;59.70
24664;DHT22;12791;50.992;13.788;2023-04-24T10:13:57;16.60;60.20
24664;DHT22;12791;50.992;13.788;2023-04-24T10:16:26;16.60;60.30
24664;DHT22;12791;50.992;13.788;2023-04-24T10:18:54;16.60;60.40
24664;DHT22;12791;50.992;13.788;2023-04-24T10:21:21;16.60;60.50
24664;DHT22;12791;50.992;13.788;2023-04-24T10:23:49;16.60;59.50
24664;DHT22;12791;50.992;13.788;2023-04-24T10:26:18;16.60;59.60
24664;DHT22;12791;50.992;13.788;2023-04-24T10:28:45;16.60;59.90
24664;DHT22;12791;50.992;13.788;2023-04-24T10:31:13;16.70;59.80
24664;DHT22;12791;50.992;13.788;2023-04-24T10:33:40;16.80;59.50
24664;DHT22;12791;50.992;13.788;2023-04-24T10:36:08;16.80;59.80
24664;DHT22;12791;50.992;13.788;2023-04-24T10:38:37;16.90;59.50
24664;DHT22;12791;50.992;13.788;2023-04-24T10:41:09;16.90;59.00
24664;DHT22;12791;50.992;13.788;2023-04-24T10:43:42;17.00;59.00
24664;DHT22;12791;50.992;13.788;2023-04-24T10:46:09;17.10;59.20
24664;DHT22;12791;50.992;13.788;2023-04-24T10:48:42;17.20;59.10
24664;DHT22;12791;50.992;13.788;2023-04-24T10:51:11;17.30;58.90
24664;DHT22;12791;50.992;13.788;2023-04-24T10:53:38;17.40;58.50
24664;DHT22;12791;50.992;13.788;2023-04-24T10:56:06;17.40;57.70
24664;DHT22;12791;50.992;13.788;2023-04-24T10:58:38;17.40;57.00
24664;DHT22;12791;50.992;13.788;2023-04-24T11:01:06;17.40;56.60
24664;DHT22;12791;50.992;13.788;2023-04-24T11:03:34;17.40;56.40
24664;DHT22;12791;50.992;13.788;2023-04-24T11:06:03;17.40;56.10
24664;DHT22;12791;50.992;13.788;2023-04-24T11:08:32;17.30;56.40
24664;DHT22;12791;50.992;13.788;2023-04-24T11:11:01;17.30;56.30
24664;DHT22;12791;50.992;13.788;2023-04-24T11:14:03;17.20;56.60
24664;DHT22;12791;50.992;13.788;2023-04-24T11:16:32;17.10;57.00
24664;DHT22;12791;50.992;13.788;2023-04-24T11:19:04;17.00;57.70
24664;DHT22;12791;50.992;13.788;2023-04-24T11:21:32;17.00;58.20
24664;DHT22;12791;50.992;13.788;2023-04-24T11:24:29;17.00;58.70
24664;DHT22;12791;50.992;13.788;2023-04-24T11:26:58;16.90;59.60
24664;DHT22;12791;50.992;13.788;2023-04-24T11:29:39;16.90;60.30
24664;DHT22;12791;50.992;13.788;2023-04-24T11:32:18;16.80;60.30
24664;DHT22;12791;50.992;13.788;2023-04-24T11:34:46;16.80;61.20
24664;DHT22;12791;50.992;13.788;2023-04-24T11:37:13;16.80;62.80
24664;DHT22;12791;50.992;13.788;2023-04-24T11:39:40;16.80;62.80
24664;DHT22;12791;50.992;13.788;2023-04-24T11:42:07;16.80;62.90
24664;DHT22;12791;50.992;13.788;2023-04-24T11:44:34;16.80;63.00
24664;DHT22;12791;50.992;13.788;2023-04-24T11:47:02;16.80;62.90
24664;DHT22;12791;50.992;13.788;2023-04-24T11:49:30;16.90;63.30
24664;DHT22;12791;50.992;13.788;2023-04-24T11:51:57;17.00;62.10
24664;DHT22;12791;50.992;13.788;2023-04-24T11:54:23;17.10;61.10
24664;DHT22;12791;50.992;13.788;2023-04-24T11:56:50;17.10;61.30
24664;DHT22;12791;50.992;13.788;2023-04-24T11:59:17;17.10;61.10
24664;DHT22;12791;50.992;13.788;2023-04-24T12:01:44;17.10;61.10
24664;DHT22;12791;50.992;13.788;2023-04-24T12:04:11;17.10;60.90
24664;DHT22;12791;50.992;13.788;2023-04-24T12:06:39;17.10;58.80
24664;DHT22;12791;50.992;13.788;2023-04-24T12:09:05;17.10;57.50
24664;DHT22;12791;50.992;13.788;2023-04-24T12:11:34;17.10;56.30
24664;DHT22;12791;50.992;13.788;2023-04-24T12:14:10;17.20;56.00
24664;DHT22;12791;50.992;13.788;2023-04-24T12:16:36;17.30;54.70
24664;DHT22;12791;50.992;13.788;2023-04-24T12:19:03;17.40;53.20
24664;DHT22;12791;50.992;13.788;2023-04-24T12:21:31;17.50;53.40
24664;DHT22;12791;50.992;13.788;2023-04-24T12:23:59;17.50;52.30
24664;DHT22;12791;50.992;13.788;2023-04-24T12:26:27;17.40;51.50
24664;DHT22;12791;50.992;13.788;2023-04-24T12:28:54;17.30;51.40
24664;DHT22;12791;50.992;13.788;2023-04-24T12:31:21;17.20;51.50
24664;DHT22;12791;50.992;13.788;2023-04-24T12:33:49;17.10;51.50
24664;DHT22;12791;50.992;13.788;2023-04-24T12:36:15;17.00;51.40
24664;DHT22;12791;50.992;13.788;2023-04-24T12:38:44;17.00;51.70
24664;DHT22;12791;50.992;13.788;2023-04-24T12:41:13;17.00;52.10
24664;DHT22;12791;50.992;13.788;2023-04-24T12:43:51;17.10;51.40
24664;DHT22;12791;50.992;13.788;2023-04-24T12:46:18;17.10;50.60
24664;DHT22;12791;50.992;13.788;2023-04-24T12:48:44;17.20;49.40
24664;DHT22;12791;50.992;13.788;2023-04-24T12:51:11;17.20;48.60
24664;DHT22;12791;50.992;13.788;2023-04-24T12:53:37;17.30;49.10
24664;DHT22;12791;50.992;13.788;2023-04-24T12:56:04;17.30;48.60
24664;DHT22;12791;50.992;13.788;2023-04-24T12:58:32;17.20;48.50
24664;DHT22;12791;50.992;13.788;2023-04-24T13:00:59;17.20;48.00
24664;DHT22;12791;50.992;13.788;2023-04-24T13:03:26;17.20;47.60
24664;DHT22;12791;50.992;13.788;2023-04-24T13:05:52;17.10;46.70
24664;DHT22;12791;50.992;13.788;2023-04-24T13:08:19;17.10;46.50
24664;DHT22;12791;50.992;13.788;2023-04-24T13:10:46;17.10;46.90
24664;DHT22;12791;50.992;13.788;2023-04-24T13:13:12;17.20;46.80
24664;DHT22;12791;50.992;13.788;2023-04-24T13:15:40;17.20;47.00
24664;DHT22;12791;50.992;13.788;2023-04-24T13:18:07;17.30;47.40
24664;DHT22;12791;50.992;13.788;2023-04-24T13:20:34;17.30;48.10
24664;DHT22;12791;50.992;13.788;2023-04-24T13:23:01;17.40;46.50
24664;DHT22;12791;50.992;13.788;2023-04-24T13:25:35;17.50;44.60
24664;DHT22;12791;50.992;13.788;2023-04-24T13:28:02;17.50;43.10
24664;DHT22;12791;50.992;13.788;2023-04-24T13:30:29;17.40;42.20
24664;DHT22;12791;50.992;13.788;2023-04-24T13:32:57;17.40;42.30
24664;DHT22;12791;50.992;13.788;2023-04-24T13:35:23;17.40;42.40
24664;DHT22;12791;50.992;13.788;2023-04-24T13:37:50;17.40;40.90
24664;DHT22;12791;50.992;13.788;2023-04-24T13:40:17;17.50;41.30
24664;DHT22;12791;50.992;13.788;2023-04-24T13:42:43;17.60;42.40
24664;DHT22;12791;50.992;13.788;2023-04-24T13:45:10;17.70;42.00
24664;DHT22;12791;50.992;13.788;2023-04-24T13:47:37;17.60;41.20
24664;DHT22;12791;50.992;13.788;2023-04-24T13:50:08;17.50;40.70
24664;DHT22;12791;50.992;13.788;2023-04-24T13:52:35;17.40;40.90
24664;DHT22;12791;50.992;13.788;2023-04-24T13:55:06;17.30;41.50
24664;DHT22;12791;50.992;13.788;2023-04-24T13:57:34;17.30;42.00
24664;DHT22;12791;50.992;13.788;2023-04-24T14:00:01;17.30;41.80
24664;DHT22;12791;50.992;13.788;2023-04-24T14:02:29;17.30;41.80
24664;DHT22;12791;50.992;13.788;2023-04-24T14:04:55;17.30;41.10
24664;DHT22;12791;50.992;13.788;2023-04-24T14:07:23;17.30;41.10
24664;DHT22;12791;50.992;13.788;2023-04-24T14:09:50;17.30;41.30
24664;DHT22;12791;50.992;13.788;2023-04-24T14:12:17;17.30;41.30
24664;DHT22;12791;50.992;13.788;2023-04-24T14:14:45;17.40;41.00
24664;DHT22;12791;50.992;13.788;2023-04-24T14:17:12;17.40;41.80
24664;DHT22;12791;50.992;13.788;2023-04-24T14:19:38;17.60;42.00
24664;DHT22;12791;50.992;13.788;2023-04-24T14:22:05;17.70;41.90
24664;DHT22;12791;50.992;13.788;2023-04-24T14:24:33;17.90;39.80
24664;DHT22;12791;50.992;13.788;2023-04-24T14:27:00;18.00;38.90
24664;DHT22;12791;50.992;13.788;2023-04-24T14:29:26;18.10;38.60
24664;DHT22;12791;50.992;13.788;2023-04-24T14:31:53;18.20;39.30
24664;DHT22;12791;50.992;13.788;2023-04-24T14:34:20;18.20;38.60
24664;DHT22;12791;50.992;13.788;2023-04-24T14:36:46;18.20;39.10
24664;DHT22;12791;50.992;13.788;2023-04-24T14:39:13;18.20;38.30
24664;DHT22;12791;50.992;13.788;2023-04-24T14:41:41;18.20;38.20
24664;DHT22;12791;50.992;13.788;2023-04-24T14:44:07;18.20;38.90
24664;DHT22;12791;50.992;13.788;2023-04-24T14:46:34;18.20;39.20
24664;DHT22;12791;50.992;13.788;2023-04-24T14:49:00;18.10;39.40
24664;DHT22;12791;50.992;13.788;2023-04-24T14:51:27;18.00;39.10
24664;DHT22;12791;50.992;13.788;2023-04-24T14:53:54;17.90;40.70
24664;DHT22;12791;50.992;13.788;2023-04-24T14:56:20;17.80;40.10
24664;DHT22;12791;50.992;13.788;2023-04-24T14:58:48;17.70;39.30
24664;DHT22;12791;50.992;13.788;2023-04-24T15:01:15;17.60;39.80
24664;DHT22;12791;50.992;13.788;2023-04-24T15:03:41;17.60;39.80
24664;DHT22;12791;50.992;13.788;2023-04-24T15:06:08;17.50;40.00
24664;DHT22;12791;50.992;13.788;2023-04-24T15:08:35;17.40;40.40
24664;DHT22;12791;50.992;13.788;2023-04-24T15:11:01;17.30;40.90
24664;DHT22;12791;50.992;13.788;2023-04-24T15:13:28;17.30;41.50
24664;DHT22;12791;50.992;13.788;2023-04-24T15:15:56;17.30;41.60
24664;DHT22;12791;50.992;13.788;2023-04-24T15:18:22;17.40;41.00